createdAt,value
2022-10-19T00:01:19.810Z,8.84
2022-10-19T00:06:28.276Z,8.95
2022-10-19T00:09:00.811Z,8.98
2022-10-19T00:11:31.064Z,8.97
2022-10-19T00:13:59.462Z,8.96
2022-10-19T00:16:35.163Z,8.96
2022-10-19T00:19:05.431Z,8.94
2022-10-19T00:21:35.027Z,8.92
2022-10-19T00:24:02.261Z,8.89
2022-10-19T00:26:29.619Z,8.87
2022-10-19T00:28:57.213Z,8.83
2022-10-19T00:31:25.267Z,8.86
2022-10-19T00:33:52.931Z,8.84
2022-10-19T00:36:24.251Z,8.82
2022-10-19T00:38:51.900Z,8.81
2022-10-19T00:41:20.426Z,8.80
2022-10-19T00:44:05.905Z,8.74
2022-10-19T00:46:37.630Z,8.66
2022-10-19T00:49:17.413Z,8.63
2022-10-19T00:51:47.180Z,8.56
2022-10-19T00:54:15.649Z,8.48
2022-10-19T00:56:45.309Z,8.42
2022-10-19T00:59:17.759Z,8.36
2022-10-19T01:01:46.715Z,8.32
2022-10-19T01:04:14.610Z,8.25
2022-10-19T01:06:44.023Z,8.20
2022-10-19T01:09:11.340Z,8.14
2022-10-19T01:12:03.486Z,8.08
2022-10-19T01:14:36.448Z,8.02
2022-10-19T01:17:44.685Z,7.97
2022-10-19T01:20:48.329Z,7.91
2022-10-19T01:23:42.149Z,7.82
2022-10-19T01:26:51.359Z,7.73
2022-10-19T01:29:20.356Z,7.66
2022-10-19T01:31:57.827Z,7.61
2022-10-19T01:34:43.400Z,7.55
2022-10-19T01:37:19.896Z,7.50
2022-10-19T01:39:58.412Z,7.48
2022-10-19T01:42:49.624Z,7.46
2022-10-19T01:45:24.800Z,7.46
2022-10-19T01:47:55.654Z,7.46
2022-10-19T01:50:38.211Z,7.48
2022-10-19T01:53:07.674Z,7.46
2022-10-19T01:55:36.180Z,7.46
2022-10-19T01:58:08.380Z,7.49
2022-10-19T02:00:39.296Z,7.51
2022-10-19T02:03:09.329Z,7.45
2022-10-19T02:05:38.387Z,7.40
2022-10-19T02:08:11.530Z,7.33
2022-10-19T02:10:40.285Z,7.32
2022-10-19T02:13:09.723Z,7.29
2022-10-19T02:15:41.393Z,7.23
2022-10-19T02:18:09.077Z,7.19
2022-10-19T02:20:37.854Z,7.13
2022-10-19T02:23:06.678Z,7.08
2022-10-19T02:25:35.115Z,7.02
2022-10-19T02:28:03.669Z,6.95
2022-10-19T02:30:31.846Z,6.95
2022-10-19T02:32:59.536Z,6.93
2022-10-19T02:35:27.005Z,6.91
2022-10-19T02:37:55.913Z,6.89
2022-10-19T02:40:24.367Z,6.86
2022-10-19T02:42:56.126Z,6.84
2022-10-19T02:45:29.264Z,6.81
2022-10-19T02:48:02.691Z,6.75
2022-10-19T02:50:30.379Z,6.67
2022-10-19T02:53:00.335Z,6.67
2022-10-19T02:55:29.315Z,6.70
2022-10-19T02:57:57.459Z,6.66
2022-10-19T03:00:26.147Z,6.68
2022-10-19T03:02:53.742Z,6.65
2022-10-19T03:05:21.058Z,6.60
2022-10-19T03:07:48.263Z,6.58
2022-10-19T03:10:15.761Z,6.59
2022-10-19T03:12:43.020Z,6.58
2022-10-19T03:15:17.024Z,6.53
2022-10-19T03:17:44.887Z,6.48
2022-10-19T03:20:12.713Z,6.44
2022-10-19T03:22:39.964Z,6.39
2022-10-19T03:25:08.547Z,6.38
2022-10-19T03:27:36.425Z,6.37
2022-10-19T03:30:12.838Z,6.37
2022-10-19T03:32:41.568Z,6.34
2022-10-19T03:35:08.969Z,6.35
2022-10-19T03:37:36.965Z,6.36
2022-10-19T03:40:04.920Z,6.38
2022-10-19T03:42:32.591Z,6.34
2022-10-19T03:45:00.053Z,6.35
2022-10-19T03:47:30.185Z,6.34
2022-10-19T03:49:57.412Z,6.40
2022-10-19T03:52:24.595Z,6.44
2022-10-19T03:54:52.103Z,6.47
2022-10-19T03:57:19.872Z,6.44
2022-10-19T03:59:47.389Z,6.41
2022-10-19T04:02:14.783Z,6.38
2022-10-19T04:04:46.336Z,6.34
2022-10-19T04:07:14.167Z,6.28
2022-10-19T04:09:41.399Z,6.24
2022-10-19T04:12:09.008Z,6.21
2022-10-19T04:14:52.527Z,6.23
2022-10-19T04:17:23.894Z,6.25
2022-10-19T04:19:51.219Z,6.31
2022-10-19T04:22:18.641Z,6.42
2022-10-19T04:24:45.964Z,6.53
2022-10-19T04:27:13.276Z,6.67
2022-10-19T04:29:41.414Z,6.81
2022-10-19T04:32:08.680Z,7.13
2022-10-19T04:34:39.193Z,7.68
2022-10-19T04:37:09.513Z,8.39
2022-10-19T04:39:40.034Z,8.78
2022-10-19T04:42:10.352Z,9.02
2022-10-19T04:44:37.760Z,9.10
2022-10-19T04:47:05.051Z,9.15
2022-10-19T04:49:32.870Z,9.09
2022-10-19T04:52:00.123Z,9.00
2022-10-19T04:54:27.562Z,8.96
2022-10-19T04:56:55.274Z,8.96
2022-10-19T04:59:22.828Z,8.87
2022-10-19T05:01:51.025Z,8.81
2022-10-19T05:04:18.701Z,8.87
2022-10-19T05:06:46.705Z,8.94
2022-10-19T05:09:14.804Z,9.06
2022-10-19T05:11:42.439Z,9.17
2022-10-19T05:14:14.937Z,9.28
2022-10-19T05:16:42.839Z,9.31
2022-10-19T05:19:18.074Z,9.59
2022-10-19T05:21:45.377Z,9.84
2022-10-19T05:24:15.590Z,9.99
2022-10-19T05:26:44.217Z,10.13
2022-10-19T05:29:14.724Z,10.26
2022-10-19T05:31:42.138Z,10.45
2022-10-19T05:34:12.607Z,10.61
2022-10-19T05:36:40.879Z,10.36
2022-10-19T05:39:14.522Z,10.37
2022-10-19T05:41:47.033Z,10.31
2022-10-19T05:44:17.932Z,10.32
2022-10-19T05:46:45.416Z,10.33
2022-10-19T05:49:17.906Z,10.33
2022-10-19T05:51:51.403Z,10.36
2022-10-19T05:54:19.840Z,10.42
2022-10-19T05:56:51.380Z,10.49
2022-10-19T05:59:24.997Z,10.55
2022-10-19T06:01:56.895Z,10.61
2022-10-19T06:04:59.449Z,10.70
2022-10-19T06:07:27.007Z,10.83
2022-10-19T06:09:56.778Z,10.93
2022-10-19T06:12:38.651Z,11.17
2022-10-19T06:15:09.696Z,11.34
2022-10-19T06:17:37.402Z,11.51
2022-10-19T06:20:05.732Z,11.56
2022-10-19T06:22:35.315Z,11.63
2022-10-19T06:25:03.999Z,11.73
2022-10-19T06:27:37.914Z,11.70
2022-10-19T06:30:11.917Z,11.89
2022-10-19T06:32:42.561Z,12.03
2022-10-19T06:35:19.712Z,12.17
2022-10-19T06:37:50.860Z,12.33
2022-10-19T06:40:18.245Z,12.42
2022-10-19T06:42:45.554Z,12.56
2022-10-19T06:45:12.972Z,12.69
2022-10-19T06:47:40.326Z,12.83
2022-10-19T06:50:08.208Z,13.01
2022-10-19T06:52:35.883Z,13.16
2022-10-19T06:55:03.776Z,13.32
2022-10-19T06:57:31.288Z,13.43
2022-10-19T06:59:59.057Z,13.54
2022-10-19T07:02:26.455Z,13.65
2022-10-19T07:04:53.677Z,13.71
2022-10-19T07:07:21.446Z,13.81
2022-10-19T07:09:48.783Z,13.88
2022-10-19T07:12:16.150Z,13.92
2022-10-19T07:14:45.046Z,13.95
2022-10-19T07:17:12.474Z,14.03
2022-10-19T07:19:40.468Z,14.15
2022-10-19T07:22:07.775Z,14.19
2022-10-19T07:24:35.179Z,14.31
2022-10-19T07:27:04.120Z,14.44
2022-10-19T07:29:31.344Z,14.54
2022-10-19T07:31:58.927Z,14.61
2022-10-19T07:34:28.934Z,14.68
2022-10-19T07:37:01.820Z,14.71
2022-10-19T07:39:29.139Z,14.72
2022-10-19T07:41:56.534Z,14.75
2022-10-19T07:44:29.981Z,14.81
2022-10-19T07:47:02.177Z,14.81
2022-10-19T07:49:29.979Z,14.78
2022-10-19T07:51:57.532Z,14.79
2022-10-19T07:54:27.324Z,14.84
2022-10-19T07:56:54.642Z,14.86
2022-10-19T07:59:23.364Z,14.91
2022-10-19T08:01:50.938Z,15.02
2022-10-19T08:07:18.094Z,15.27
2022-10-19T08:09:53.335Z,15.37
2022-10-19T08:12:21.525Z,15.42
2022-10-19T08:14:48.863Z,15.47
2022-10-19T08:17:17.777Z,15.48
2022-10-19T08:19:46.475Z,15.34
2022-10-19T08:22:15.220Z,15.47
2022-10-19T08:24:45.272Z,15.53
2022-10-19T08:27:17.296Z,15.63
2022-10-19T08:29:51.040Z,15.70
2022-10-19T08:32:25.771Z,15.83
2022-10-19T08:34:52.965Z,15.95
2022-10-19T08:37:39.959Z,16.06
2022-10-19T08:40:26.834Z,16.23
2022-10-19T08:43:05.025Z,16.38
2022-10-19T08:45:37.190Z,16.54
2022-10-19T08:49:30.496Z,16.67
2022-10-19T08:52:00.916Z,16.89
2022-10-19T08:54:40.848Z,17.01
2022-10-19T08:57:46.062Z,17.07
2022-10-19T09:00:30.467Z,17.18
2022-10-19T09:03:32.146Z,17.32
2022-10-19T09:06:35.009Z,17.40
2022-10-19T09:09:05.574Z,17.55
2022-10-19T09:11:39.252Z,17.56
2022-10-19T09:14:12.486Z,17.58
2022-10-19T09:16:40.130Z,17.65
2022-10-19T09:19:28.110Z,17.79
2022-10-19T09:22:20.620Z,17.85
2022-10-19T09:24:53.482Z,17.92
2022-10-19T09:27:24.311Z,17.97
2022-10-19T09:29:57.124Z,18.04
2022-10-19T09:32:28.763Z,18.11
2022-10-19T09:35:24.290Z,18.22
2022-10-19T09:37:56.466Z,18.31
2022-10-19T09:40:26.417Z,18.43
2022-10-19T09:42:58.516Z,18.55
2022-10-19T09:45:28.979Z,18.62
2022-10-19T09:48:00.433Z,18.65
2022-10-19T09:50:32.252Z,18.65
2022-10-19T09:53:04.235Z,18.60
2022-10-19T09:55:45.985Z,18.59
2022-10-19T09:58:13.400Z,18.55
2022-10-19T10:00:56.837Z,18.47
2022-10-19T10:03:34.380Z,18.40
2022-10-19T10:06:07.401Z,18.43
2022-10-19T10:08:37.487Z,18.45
2022-10-19T10:11:13.907Z,18.51
2022-10-19T10:13:48.404Z,18.52
2022-10-19T10:16:33.799Z,18.54
2022-10-19T10:19:07.390Z,18.56
2022-10-19T10:21:51.109Z,18.58
2022-10-19T10:24:21.332Z,18.59
2022-10-19T10:26:54.570Z,18.62
2022-10-19T10:29:33.327Z,18.66
2022-10-19T10:32:01.760Z,18.67
2022-10-19T10:34:45.443Z,18.69
2022-10-19T10:37:31.293Z,18.72
2022-10-19T10:40:01.975Z,18.75
2022-10-19T10:42:41.576Z,18.77
2022-10-19T10:45:26.867Z,18.81
2022-10-19T10:47:54.382Z,18.87
2022-10-19T10:50:28.033Z,18.93
2022-10-19T10:53:33.287Z,18.99
2022-10-19T10:56:00.879Z,19.05
2022-10-19T10:58:39.303Z,19.15
2022-10-19T11:01:23.246Z,19.25
2022-10-19T11:03:54.570Z,19.32
2022-10-19T11:09:09.594Z,19.46
2022-10-19T11:11:43.597Z,19.54
2022-10-19T11:14:21.270Z,19.63
2022-10-19T11:16:52.444Z,19.74
2022-10-19T11:19:29.858Z,19.79
2022-10-19T11:22:15.330Z,19.88
2022-10-19T11:24:54.583Z,19.92
2022-10-19T11:27:41.571Z,19.94
2022-10-19T11:30:13.982Z,19.94
2022-10-19T11:33:19.638Z,19.92
2022-10-19T11:36:02.010Z,19.88
2022-10-19T11:38:42.005Z,19.87
2022-10-19T11:41:24.083Z,19.91
2022-10-19T11:44:12.606Z,20.06
2022-10-19T11:46:54.026Z,20.23
2022-10-19T11:49:24.189Z,20.37
2022-10-19T11:51:58.223Z,20.50
2022-10-19T11:54:33.861Z,20.54
2022-10-19T11:57:20.721Z,20.58
2022-10-19T12:00:14.805Z,20.65
2022-10-19T12:03:19.137Z,20.60
2022-10-19T12:06:00.054Z,20.51
2022-10-19T12:08:51.252Z,20.43
2022-10-19T12:11:53.180Z,20.36
2022-10-19T12:14:24.718Z,20.30
2022-10-19T12:16:57.988Z,20.26
2022-10-19T12:19:40.033Z,20.21
2022-10-19T12:22:13.959Z,20.18
2022-10-19T12:24:42.826Z,20.12
2022-10-19T12:31:33.834Z,20.06
2022-10-19T12:34:42.044Z,20.04
2022-10-19T12:37:21.464Z,19.99
2022-10-19T12:40:06.700Z,19.92
2022-10-19T12:42:51.949Z,19.76
2022-10-19T12:45:31.681Z,19.68
2022-10-19T12:48:09.490Z,19.60
2022-10-19T12:50:50.692Z,19.51
2022-10-19T12:56:07.254Z,19.40
2022-10-19T12:59:01.311Z,19.35
2022-10-19T13:01:34.322Z,19.31
2022-10-19T13:04:07.662Z,19.25
2022-10-19T13:06:43.952Z,19.19
2022-10-19T13:09:42.275Z,19.15
2022-10-19T13:12:16.330Z,19.08
2022-10-19T13:14:51.938Z,19.01
2022-10-19T13:17:35.098Z,18.98
2022-10-19T13:20:15.667Z,18.94
2022-10-19T13:22:50.719Z,18.89
2022-10-19T13:25:27.792Z,18.80
2022-10-19T13:28:02.486Z,18.75
2022-10-19T13:30:39.054Z,18.68
2022-10-19T13:33:24.868Z,18.60
2022-10-19T13:36:02.537Z,18.57
2022-10-19T13:38:33.475Z,18.53
2022-10-19T13:41:21.844Z,18.48
2022-10-19T13:43:58.581Z,18.45
2022-10-19T13:46:28.976Z,18.40
2022-10-19T13:49:05.163Z,18.36
2022-10-19T13:51:54.305Z,18.30
2022-10-19T13:54:36.856Z,18.24
2022-10-19T13:57:10.145Z,18.23
2022-10-19T14:00:05.316Z,18.15
2022-10-19T14:02:37.449Z,18.10
2022-10-19T14:05:23.360Z,18.06
2022-10-19T14:08:03.746Z,18.02
2022-10-19T14:10:33.064Z,17.99
2022-10-19T14:13:14.939Z,17.94
2022-10-19T14:15:51.869Z,17.89
2022-10-19T14:18:33.365Z,17.87
2022-10-19T14:21:02.191Z,17.82
2022-10-19T14:23:41.246Z,17.77
2022-10-19T14:26:21.217Z,17.73
2022-10-19T14:28:53.179Z,17.69
2022-10-19T14:31:30.761Z,17.65
2022-10-19T14:34:01.103Z,17.62
2022-10-19T14:36:37.473Z,17.60
2022-10-19T14:39:08.319Z,17.56
2022-10-19T14:41:37.207Z,17.53
2022-10-19T14:44:43.476Z,17.49
2022-10-19T14:47:31.713Z,17.45
2022-10-19T14:49:59.626Z,17.39
2022-10-19T14:52:35.390Z,17.37
2022-10-19T14:55:18.214Z,17.29
2022-10-19T14:57:49.694Z,17.26
2022-10-19T15:00:22.139Z,17.20
2022-10-19T15:03:01.561Z,17.08
2022-10-19T15:05:32.338Z,17.03
2022-10-19T15:08:11.786Z,16.95
2022-10-19T15:14:01.036Z,16.77
2022-10-19T15:19:52.225Z,16.57
2022-10-19T15:22:42.162Z,16.50
2022-10-19T15:25:10.348Z,16.41
2022-10-19T15:27:40.549Z,16.35
2022-10-19T15:30:23.572Z,16.28
2022-10-19T15:32:57.527Z,16.24
2022-10-19T15:35:31.250Z,16.18
2022-10-19T15:38:14.940Z,16.08
2022-10-19T15:40:44.766Z,16.00
2022-10-19T15:43:44.593Z,15.91
2022-10-19T15:46:33.609Z,15.79
2022-10-19T15:49:17.178Z,15.68
2022-10-19T15:51:49.852Z,15.60
2022-10-19T15:54:19.367Z,15.51
2022-10-19T15:56:53.133Z,15.43
2022-10-19T15:59:27.045Z,15.30
2022-10-19T16:02:02.839Z,15.29
2022-10-19T16:04:30.156Z,15.27
2022-10-19T16:06:57.851Z,15.21
2022-10-19T16:09:27.862Z,15.17
2022-10-19T16:11:57.520Z,15.12
2022-10-19T16:14:26.717Z,15.06
2022-10-19T16:16:59.532Z,14.98
2022-10-19T16:19:29.233Z,14.89
2022-10-19T16:21:58.031Z,14.84
2022-10-19T16:24:27.410Z,14.77
2022-10-19T16:26:54.916Z,14.70
2022-10-19T16:29:25.490Z,14.66
2022-10-19T16:31:56.463Z,14.59
2022-10-19T16:34:23.783Z,14.53
2022-10-19T16:37:07.565Z,14.44
2022-10-19T16:39:35.549Z,14.30
2022-10-19T16:42:02.929Z,14.18
2022-10-19T16:44:30.489Z,14.13
2022-10-19T16:46:58.004Z,14.02
2022-10-19T16:49:25.864Z,13.87
2022-10-19T16:51:56.525Z,13.68
2022-10-19T16:54:30.220Z,13.47
2022-10-19T16:56:58.209Z,13.37
2022-10-19T16:59:26.955Z,13.27
2022-10-19T17:01:57.979Z,13.16
2022-10-19T17:04:26.805Z,12.96
2022-10-19T17:06:55.136Z,12.88
2022-10-19T17:09:40.954Z,12.81
2022-10-19T17:12:11.588Z,12.69
2022-10-19T17:17:39.516Z,12.52
2022-10-19T17:20:07.888Z,12.46
2022-10-19T17:22:37.318Z,12.35
2022-10-19T17:25:05.263Z,12.28
2022-10-19T17:27:33.266Z,12.23
2022-10-19T17:30:00.521Z,12.12
2022-10-19T17:32:36.007Z,12.10
2022-10-19T17:35:03.668Z,12.07
2022-10-19T17:37:31.482Z,12.02
2022-10-19T17:40:06.869Z,11.97
2022-10-19T17:42:36.665Z,11.96
2022-10-19T17:50:14.126Z,11.94
2022-10-19T17:52:44.634Z,11.93
2022-10-19T17:55:13.070Z,11.90
2022-10-19T17:57:40.824Z,11.88
2022-10-19T18:00:11.283Z,11.87
2022-10-19T18:02:49.023Z,11.86
2022-10-19T18:05:16.931Z,11.87
2022-10-19T18:07:49.207Z,11.88
2022-10-19T18:10:16.436Z,11.89
2022-10-19T18:12:49.314Z,11.87
2022-10-19T18:15:19.183Z,11.86
2022-10-19T18:17:50.050Z,11.81
2022-10-19T18:20:17.325Z,11.83
2022-10-19T18:23:18.362Z,11.81
2022-10-19T18:25:55.731Z,11.82
2022-10-19T18:28:23.796Z,11.82
2022-10-19T18:30:51.066Z,11.80
2022-10-19T18:33:19.225Z,11.78
2022-10-19T18:35:46.418Z,11.76
2022-10-19T18:38:15.764Z,11.74
2022-10-19T18:40:47.186Z,11.74
2022-10-19T18:43:14.391Z,11.73
2022-10-19T18:45:55.588Z,11.72
2022-10-19T18:48:37.501Z,11.72
2022-10-19T18:51:07.497Z,11.73
2022-10-19T18:53:41.510Z,11.71
2022-10-19T18:56:16.997Z,11.72
2022-10-19T18:58:54.223Z,11.71
2022-10-19T19:01:26.942Z,11.69
2022-10-19T19:03:57.439Z,11.71
2022-10-19T19:06:36.164Z,11.71
2022-10-19T19:09:08.242Z,11.73
2022-10-19T19:11:37.513Z,11.75
2022-10-19T19:14:10.354Z,11.77
2022-10-19T19:16:39.543Z,11.79
2022-10-19T19:19:12.895Z,11.79
2022-10-19T19:21:44.529Z,11.80
2022-10-19T19:24:18.224Z,11.82
2022-10-19T19:27:02.697Z,11.81
2022-10-19T19:29:31.476Z,11.81
2022-10-19T19:31:59.091Z,11.81
2022-10-19T19:34:26.367Z,11.81
2022-10-19T19:36:53.856Z,11.85
2022-10-19T19:39:30.272Z,11.83
2022-10-19T19:41:57.659Z,11.84
2022-10-19T19:44:31.008Z,11.84
2022-10-19T19:47:00.657Z,11.86
2022-10-19T19:49:28.370Z,11.88
2022-10-19T19:51:56.461Z,11.91
2022-10-19T19:54:24.638Z,11.92
2022-10-19T19:56:54.265Z,11.91
2022-10-19T19:59:22.457Z,11.93
2022-10-19T20:01:49.736Z,11.93
2022-10-19T20:04:16.977Z,11.93
2022-10-19T20:06:45.077Z,11.93
2022-10-19T20:09:12.795Z,11.94
2022-10-19T20:11:42.748Z,11.93
2022-10-19T20:14:12.157Z,11.94
2022-10-19T20:16:40.806Z,11.92
2022-10-19T20:19:13.747Z,11.93
2022-10-19T20:21:42.524Z,11.91
2022-10-19T20:24:12.565Z,11.92
2022-10-19T20:26:40.178Z,11.90
2022-10-19T20:29:08.498Z,11.90
2022-10-19T20:31:39.681Z,11.92
2022-10-19T20:34:09.248Z,11.90
2022-10-19T20:36:36.538Z,11.87
2022-10-19T20:39:04.018Z,11.87
2022-10-19T20:41:32.138Z,11.84
2022-10-19T20:43:59.485Z,11.83
2022-10-19T20:46:30.876Z,11.80
2022-10-19T20:49:01.571Z,11.73
2022-10-19T20:51:32.427Z,11.69
2022-10-19T20:54:02.867Z,11.66
2022-10-19T20:56:32.691Z,11.69
2022-10-19T21:01:37.206Z,11.64
2022-10-19T21:04:07.862Z,11.60
2022-10-19T21:06:40.021Z,11.59
2022-10-19T21:09:08.522Z,11.58
2022-10-19T21:11:39.186Z,11.62
2022-10-19T21:14:15.341Z,11.60
2022-10-19T21:16:43.354Z,11.60
2022-10-19T21:19:13.111Z,11.57
2022-10-19T21:21:43.206Z,11.61
2022-10-19T21:24:15.479Z,11.65
2022-10-19T21:26:43.291Z,11.69
2022-10-19T21:29:11.616Z,11.71
2022-10-19T21:31:43.083Z,11.72
2022-10-19T21:34:15.190Z,11.70
2022-10-19T21:36:42.720Z,11.69
2022-10-19T21:39:10.883Z,11.66
2022-10-19T21:41:38.214Z,11.62
2022-10-19T21:44:05.548Z,11.55
2022-10-19T21:46:34.497Z,11.49
2022-10-19T21:49:01.808Z,11.45
2022-10-19T21:51:30.212Z,11.41
2022-10-19T21:53:57.604Z,11.36
2022-10-19T21:56:24.910Z,11.33
2022-10-19T21:58:53.635Z,11.28
2022-10-19T22:01:24.554Z,11.24
2022-10-19T22:04:00.116Z,11.25
2022-10-19T22:06:29.693Z,11.28
2022-10-19T22:08:58.104Z,11.37
2022-10-19T22:11:25.858Z,11.45
2022-10-19T22:13:57.921Z,11.47
2022-10-19T22:16:26.431Z,11.52
2022-10-19T22:18:54.389Z,11.57
2022-10-19T22:21:33.006Z,11.59
2022-10-19T22:24:02.563Z,11.58
2022-10-19T22:26:36.191Z,11.51
2022-10-19T22:29:04.993Z,11.42
2022-10-19T22:31:33.639Z,11.31
2022-10-19T22:34:03.917Z,11.21
2022-10-19T22:36:31.662Z,11.11
2022-10-19T22:39:00.963Z,11.01
2022-10-19T22:41:28.519Z,10.96
2022-10-19T22:43:55.949Z,10.90
2022-10-19T22:46:25.761Z,10.83
2022-10-19T22:48:53.156Z,10.75
2022-10-19T22:51:20.510Z,10.69
2022-10-19T22:53:48.886Z,10.60
2022-10-19T22:56:16.250Z,10.52
2022-10-19T22:58:46.635Z,10.49
2022-10-19T23:01:16.992Z,10.44
2022-10-19T23:03:44.656Z,10.41
2022-10-19T23:06:15.254Z,10.39
2022-10-19T23:08:43.385Z,10.37
2022-10-19T23:11:11.356Z,10.35
2022-10-19T23:13:40.010Z,10.33
2022-10-19T23:16:08.055Z,10.27
2022-10-19T23:18:38.814Z,10.17
2022-10-19T23:21:09.430Z,10.10
2022-10-19T23:23:39.253Z,10.08
2022-10-19T23:26:18.089Z,10.08
2022-10-19T23:28:49.824Z,10.08
2022-10-19T23:31:26.216Z,10.04
2022-10-19T23:33:54.152Z,10.07
2022-10-19T23:36:24.266Z,10.10
2022-10-19T23:38:53.295Z,10.11
2022-10-19T23:41:24.830Z,10.12
2022-10-19T23:43:52.684Z,10.10
2022-10-19T23:46:20.298Z,10.07
2022-10-19T23:48:47.670Z,10.05
2022-10-19T23:51:17.617Z,10.01
2022-10-19T23:53:50.808Z,9.94
2022-10-19T23:56:20.729Z,9.88
2022-10-19T23:58:51.989Z,9.80
